sensor_id;sensor_type;location;lat;lon;timestamp;P1;P2;P0
55304;PMS7003;65692;51.378;19.824;2023-03-01T00:02:21;160.67;127.00;75.67
55304;PMS7003;65692;51.378;19.824;2023-03-01T00:04:48;146.67;121.67;76.00
55304;PMS7003;65692;51.378;19.824;2023-03-01T00:07:16;152.00;120.00;76.00
55304;PMS7003;65692;51.378;19.824;2023-03-01T00:09:43;160.75;125.25;74.50
55304;PMS7003;65692;51.378;19.824;2023-03-01T00:12:12;211.00;163.50;98.25
55304;PMS7003;65692;51.378;19.824;2023-03-01T00:14:38;162.25;130.50;78.00
55304;PMS7003;65692;51.378;19.824;2023-03-01T00:17:05;160.00;133.00;78.33
55304;PMS7003;65692;51.378;19.824;2023-03-01T00:19:32;107.67;76.00;37.33
55304;PMS7003;65692;51.378;19.824;2023-03-01T00:21:58;155.67;109.33;67.00
55304;PMS7003;65692;51.378;19.824;2023-03-01T00:24:25;158.33;124.67;74.67
55304;PMS7003;65692;51.378;19.824;2023-03-01T00:26:55;142.67;110.00;68.67
55304;PMS7003;65692;51.378;19.824;2023-03-01T00:29:22;163.00;129.67;73.67
55304;PMS7003;65692;51.378;19.824;2023-03-01T00:31:49;127.33;95.33;64.00
55304;PMS7003;65692;51.378;19.824;2023-03-01T00:34:16;135.33;115.67;72.67
55304;PMS7003;65692;51.378;19.824;2023-03-01T00:36:42;135.67;111.33;67.67
55304;PMS7003;65692;51.378;19.824;2023-03-01T00:39:15;202.25;166.00;101.50
55304;PMS7003;65692;51.378;19.824;2023-03-01T00:41:42;189.75;156.75;93.75
55304;PMS7003;65692;51.378;19.824;2023-03-01T00:44:11;161.67;127.00;76.67
55304;PMS7003;65692;51.378;19.824;2023-03-01T00:46:38;191.00;158.50;95.50
55304;PMS7003;65692;51.378;19.824;2023-03-01T00:49:05;220.25;168.75;96.50
55304;PMS7003;65692;51.378;19.824;2023-03-01T00:51:33;176.00;143.00;85.00
55304;PMS7003;65692;51.378;19.824;2023-03-01T00:54:03;137.00;107.00;61.67
55304;PMS7003;65692;51.378;19.824;2023-03-01T00:56:30;138.00;114.33;72.67
55304;PMS7003;65692;51.378;19.824;2023-03-01T00:58:58;156.67;129.67;78.00
55304;PMS7003;65692;51.378;19.824;2023-03-01T01:01:26;178.00;137.67;84.67
55304;PMS7003;65692;51.378;19.824;2023-03-01T01:03:57;161.67;122.67;72.67
55304;PMS7003;65692;51.378;19.824;2023-03-01T01:06:25;154.33;125.67;73.67
55304;PMS7003;65692;51.378;19.824;2023-03-01T01:08:52;173.75;141.75;84.50
55304;PMS7003;65692;51.378;19.824;2023-03-01T01:11:19;190.25;151.75;89.25
55304;PMS7003;65692;51.378;19.824;2023-03-01T01:13:49;145.00;109.00;63.00
55304;PMS7003;65692;51.378;19.824;2023-03-01T01:16:17;161.67;127.67;75.67
55304;PMS7003;65692;51.378;19.824;2023-03-01T01:18:44;163.00;122.67;73.00
55304;PMS7003;65692;51.378;19.824;2023-03-01T01:21:12;130.67;106.67;66.67
55304;PMS7003;65692;51.378;19.824;2023-03-01T01:23:39;162.67;121.33;74.33
55304;PMS7003;65692;51.378;19.824;2023-03-01T01:26:07;180.50;141.50;89.25
55304;PMS7003;65692;51.378;19.824;2023-03-01T01:28:35;153.67;131.33;81.00
55304;PMS7003;65692;51.378;19.824;2023-03-01T01:31:02;187.00;143.00;86.75
55304;PMS7003;65692;51.378;19.824;2023-03-01T01:33:28;144.33;105.67;65.67
55304;PMS7003;65692;51.378;19.824;2023-03-01T01:35:55;178.67;141.00;79.67
55304;PMS7003;65692;51.378;19.824;2023-03-01T01:38:25;191.25;142.00;94.00
55304;PMS7003;65692;51.378;19.824;2023-03-01T01:40:51;200.25;156.75;94.75
55304;PMS7003;65692;51.378;19.824;2023-03-01T01:43:19;158.00;115.67;63.67
55304;PMS7003;65692;51.378;19.824;2023-03-01T01:45:47;165.00;124.75;61.00
55304;PMS7003;65692;51.378;19.824;2023-03-01T01:48:15;124.33;97.33;58.00
55304;PMS7003;65692;51.378;19.824;2023-03-01T01:50:43;170.00;133.67;77.33
55304;PMS7003;65692;51.378;19.824;2023-03-01T01:53:12;124.00;98.67;60.00
55304;PMS7003;65692;51.378;19.824;2023-03-01T01:55:42;126.33;101.67;66.67
55304;PMS7003;65692;51.378;19.824;2023-03-01T01:58:11;137.67;105.67;67.00
55304;PMS7003;65692;51.378;19.824;2023-03-01T02:00:40;145.00;117.00;71.33
55304;PMS7003;65692;51.378;19.824;2023-03-01T02:03:08;115.67;97.67;63.67
55304;PMS7003;65692;51.378;19.824;2023-03-01T02:05:38;132.33;104.67;62.33
55304;PMS7003;65692;51.378;19.824;2023-03-01T02:08:06;134.33;110.00;61.00
55304;PMS7003;65692;51.378;19.824;2023-03-01T02:10:34;132.67;110.33;62.67
55304;PMS7003;65692;51.378;19.824;2023-03-01T02:13:01;190.67;140.67;81.00
55304;PMS7003;65692;51.378;19.824;2023-03-01T02:15:31;118.00;90.67;54.33
55304;PMS7003;65692;51.378;19.824;2023-03-01T02:17:58;143.67;123.33;76.67
55304;PMS7003;65692;51.378;19.824;2023-03-01T02:23:18;149.67;114.00;64.67
55304;PMS7003;65692;51.378;19.824;2023-03-01T02:28:31;139.00;113.33;68.00
55304;PMS7003;65692;51.378;19.824;2023-03-01T02:30:59;190.00;160.00;94.25
55304;PMS7003;65692;51.378;19.824;2023-03-01T02:33:44;186.00;142.67;88.67
55304;PMS7003;65692;51.378;19.824;2023-03-01T02:36:19;170.25;128.25;74.75
55304;PMS7003;65692;51.378;19.824;2023-03-01T02:38:46;183.00;143.00;89.33
55304;PMS7003;65692;51.378;19.824;2023-03-01T02:41:14;184.67;140.00;82.00
55304;PMS7003;65692;51.378;19.824;2023-03-01T02:43:42;170.00;132.00;78.33
55304;PMS7003;65692;51.378;19.824;2023-03-01T02:46:13;163.33;131.33;76.67
55304;PMS7003;65692;51.378;19.824;2023-03-01T02:48:41;122.67;96.00;63.33
55304;PMS7003;65692;51.378;19.824;2023-03-01T02:51:16;203.00;165.00;98.50
55304;PMS7003;65692;51.378;19.824;2023-03-01T02:56:11;145.00;108.33;64.00
55304;PMS7003;65692;51.378;19.824;2023-03-01T02:58:40;158.67;127.00;79.67
55304;PMS7003;65692;51.378;19.824;2023-03-01T03:01:12;159.67;119.33;73.00
55304;PMS7003;65692;51.378;19.824;2023-03-01T03:03:41;170.00;135.33;76.00
55304;PMS7003;65692;51.378;19.824;2023-03-01T03:06:08;167.67;134.00;79.00
55304;PMS7003;65692;51.378;19.824;2023-03-01T03:08:35;132.67;105.00;69.67
55304;PMS7003;65692;51.378;19.824;2023-03-01T03:11:01;185.75;145.50;87.25
55304;PMS7003;65692;51.378;19.824;2023-03-01T03:13:28;157.33;126.00;75.67
55304;PMS7003;65692;51.378;19.824;2023-03-01T03:15:55;197.67;133.67;81.67
55304;PMS7003;65692;51.378;19.824;2023-03-01T03:18:22;172.25;126.75;77.25
55304;PMS7003;65692;51.378;19.824;2023-03-01T03:20:52;144.67;120.00;75.00
55304;PMS7003;65692;51.378;19.824;2023-03-01T03:23:22;137.67;115.00;68.67
55304;PMS7003;65692;51.378;19.824;2023-03-01T03:25:49;167.33;135.00;82.00
55304;PMS7003;65692;51.378;19.824;2023-03-01T03:28:16;130.67;108.33;68.00
55304;PMS7003;65692;51.378;19.824;2023-03-01T03:30:43;125.67;105.33;59.33
55304;PMS7003;65692;51.378;19.824;2023-03-01T03:33:10;120.00;97.00;63.00
55304;PMS7003;65692;51.378;19.824;2023-03-01T03:35:48;116.33;87.00;54.67
55304;PMS7003;65692;51.378;19.824;2023-03-01T03:38:17;139.33;103.67;66.33
55304;PMS7003;65692;51.378;19.824;2023-03-01T03:43:46;128.33;102.67;62.67
55304;PMS7003;65692;51.378;19.824;2023-03-01T03:46:12;110.67;78.33;50.33
55304;PMS7003;65692;51.378;19.824;2023-03-01T03:48:43;105.00;76.00;49.00
55304;PMS7003;65692;51.378;19.824;2023-03-01T03:51:11;112.33;88.67;59.33
55304;PMS7003;65692;51.378;19.824;2023-03-01T03:53:38;121.00;88.67;50.33
55304;PMS7003;65692;51.378;19.824;2023-03-01T03:56:04;116.33;94.33;62.33
55304;PMS7003;65692;51.378;19.824;2023-03-01T03:58:31;136.33;105.33;63.00
55304;PMS7003;65692;51.378;19.824;2023-03-01T04:00:58;115.00;97.00;63.33
55304;PMS7003;65692;51.378;19.824;2023-03-01T04:03:27;123.67;91.67;58.00
55304;PMS7003;65692;51.378;19.824;2023-03-01T04:05:53;124.00;97.00;58.00
55304;PMS7003;65692;51.378;19.824;2023-03-01T04:08:21;132.00;108.67;64.67
55304;PMS7003;65692;51.378;19.824;2023-03-01T04:10:49;136.00;104.00;64.67
55304;PMS7003;65692;51.378;19.824;2023-03-01T04:13:18;144.33;111.67;71.33
55304;PMS7003;65692;51.378;19.824;2023-03-01T04:15:46;145.67;119.67;72.33
55304;PMS7003;65692;51.378;19.824;2023-03-01T04:18:14;144.00;110.33;69.33
55304;PMS7003;65692;51.378;19.824;2023-03-01T04:20:41;162.67;121.67;75.00
55304;PMS7003;65692;51.378;19.824;2023-03-01T04:23:11;108.67;78.67;51.67
55304;PMS7003;65692;51.378;19.824;2023-03-01T04:25:45;134.00;110.67;65.67
55304;PMS7003;65692;51.378;19.824;2023-03-01T04:28:12;150.00;120.00;77.33
55304;PMS7003;65692;51.378;19.824;2023-03-01T04:30:38;188.00;150.00;97.00
55304;PMS7003;65692;51.378;19.824;2023-03-01T04:33:06;145.50;125.50;67.50
55304;PMS7003;65692;51.378;19.824;2023-03-01T04:35:33;174.75;140.50;89.75
55304;PMS7003;65692;51.378;19.824;2023-03-01T04:38:00;190.00;153.00;92.75
55304;PMS7003;65692;51.378;19.824;2023-03-01T04:40:27;204.25;163.75;97.50
55304;PMS7003;65692;51.378;19.824;2023-03-01T04:42:53;153.75;128.25;71.50
55304;PMS7003;65692;51.378;19.824;2023-03-01T04:45:20;189.25;139.00;78.25
55304;PMS7003;65692;51.378;19.824;2023-03-01T04:47:46;159.00;129.00;73.00
55304;PMS7003;65692;51.378;19.824;2023-03-01T04:50:16;227.50;175.00;105.00
55304;PMS7003;65692;51.378;19.824;2023-03-01T04:52:43;249.25;194.00;116.25
55304;PMS7003;65692;51.378;19.824;2023-03-01T04:55:10;199.25;162.50;98.50
55304;PMS7003;65692;51.378;19.824;2023-03-01T04:57:36;177.25;143.50;86.75
55304;PMS7003;65692;51.378;19.824;2023-03-01T05:00:04;205.00;163.00;97.50
55304;PMS7003;65692;51.378;19.824;2023-03-01T05:02:52;211.00;173.50;106.00
55304;PMS7003;65692;51.378;19.824;2023-03-01T05:05:23;175.25;141.25;82.75
55304;PMS7003;65692;51.378;19.824;2023-03-01T05:07:54;189.75;138.50;70.75
55304;PMS7003;65692;51.378;19.824;2023-03-01T05:10:21;206.75;180.75;106.00
55304;PMS7003;65692;51.378;19.824;2023-03-01T05:12:48;219.00;174.50;102.50
55304;PMS7003;65692;51.378;19.824;2023-03-01T05:15:14;155.50;118.00;73.00
55304;PMS7003;65692;51.378;19.824;2023-03-01T05:17:41;189.50;156.75;97.00
55304;PMS7003;65692;51.378;19.824;2023-03-01T05:20:08;185.75;150.50;88.50
55304;PMS7003;65692;51.378;19.824;2023-03-01T05:22:35;192.50;148.00;98.50
55304;PMS7003;65692;51.378;19.824;2023-03-01T05:25:02;205.25;165.25;101.00
55304;PMS7003;65692;51.378;19.824;2023-03-01T05:27:29;241.00;194.50;120.75
55304;PMS7003;65692;51.378;19.824;2023-03-01T05:29:55;166.75;144.75;88.25
55304;PMS7003;65692;51.378;19.824;2023-03-01T05:32:22;234.25;195.50;119.00
55304;PMS7003;65692;51.378;19.824;2023-03-01T05:34:49;243.50;196.75;113.75
55304;PMS7003;65692;51.378;19.824;2023-03-01T05:37:15;217.50;172.50;105.75
55304;PMS7003;65692;51.378;19.824;2023-03-01T05:39:43;224.00;170.25;101.50
55304;PMS7003;65692;51.378;19.824;2023-03-01T05:42:10;214.75;178.50;107.00
55304;PMS7003;65692;51.378;19.824;2023-03-01T05:44:37;225.00;172.75;108.75
55304;PMS7003;65692;51.378;19.824;2023-03-01T05:47:04;198.75;159.25;90.75
55304;PMS7003;65692;51.378;19.824;2023-03-01T05:49:31;202.50;161.50;95.00
55304;PMS7003;65692;51.378;19.824;2023-03-01T05:51:57;113.67;82.67;45.67
55304;PMS7003;65692;51.378;19.824;2023-03-01T05:54:24;190.75;157.25;88.50
55304;PMS7003;65692;51.378;19.824;2023-03-01T05:59:40;137.00;107.33;65.67
55304;PMS7003;65692;51.378;19.824;2023-03-01T06:02:11;114.33;88.33;58.33
55304;PMS7003;65692;51.378;19.824;2023-03-01T06:04:38;183.67;136.00;82.67
55304;PMS7003;65692;51.378;19.824;2023-03-01T06:07:05;120.67;103.00;63.67
55304;PMS7003;65692;51.378;19.824;2023-03-01T06:09:31;126.33;97.33;64.00
55304;PMS7003;65692;51.378;19.824;2023-03-01T06:11:58;111.33;84.33;55.00
55304;PMS7003;65692;51.378;19.824;2023-03-01T06:14:24;109.00;80.00;46.00
55304;PMS7003;65692;51.378;19.824;2023-03-01T06:16:52;115.67;88.00;56.33
55304;PMS7003;65692;51.378;19.824;2023-03-01T06:19:18;110.00;78.67;54.00
55304;PMS7003;65692;51.378;19.824;2023-03-01T06:21:45;112.00;88.67;58.00
55304;PMS7003;65692;51.378;19.824;2023-03-01T06:24:11;113.33;84.00;52.00
55304;PMS7003;65692;51.378;19.824;2023-03-01T06:26:38;109.50;79.00;49.00
55304;PMS7003;65692;51.378;19.824;2023-03-01T06:29:06;103.75;73.50;46.00
55304;PMS7003;65692;51.378;19.824;2023-03-01T06:31:33;104.75;78.00;49.00
55304;PMS7003;65692;51.378;19.824;2023-03-01T06:34:00;112.00;81.75;52.00
55304;PMS7003;65692;51.378;19.824;2023-03-01T06:36:26;101.75;72.00;39.25
55304;PMS7003;65692;51.378;19.824;2023-03-01T06:38:53;111.75;85.50;52.00
55304;PMS7003;65692;51.378;19.824;2023-03-01T06:41:20;98.25;77.75;51.25
55304;PMS7003;65692;51.378;19.824;2023-03-01T06:43:46;113.00;79.00;52.00
55304;PMS7003;65692;51.378;19.824;2023-03-01T06:46:13;127.50;92.00;57.50
55304;PMS7003;65692;51.378;19.824;2023-03-01T06:48:39;120.67;96.67;59.00
55304;PMS7003;65692;51.378;19.824;2023-03-01T06:51:08;121.33;101.67;61.00
55304;PMS7003;65692;51.378;19.824;2023-03-01T06:53:35;132.00;108.67;64.00
55304;PMS7003;65692;51.378;19.824;2023-03-01T06:56:01;150.67;123.33;73.67
55304;PMS7003;65692;51.378;19.824;2023-03-01T06:58:28;160.00;129.00;80.00
55304;PMS7003;65692;51.378;19.824;2023-03-01T07:00:54;126.33;99.67;62.33
55304;PMS7003;65692;51.378;19.824;2023-03-01T07:03:21;137.67;105.33;67.00
55304;PMS7003;65692;51.378;19.824;2023-03-01T07:05:49;123.33;102.67;58.00
55304;PMS7003;65692;51.378;19.824;2023-03-01T07:08:16;128.67;106.00;64.00
55304;PMS7003;65692;51.378;19.824;2023-03-01T07:10:42;133.75;103.25;61.50
55304;PMS7003;65692;51.378;19.824;2023-03-01T07:13:08;126.50;100.00;58.50
55304;PMS7003;65692;51.378;19.824;2023-03-01T07:15:35;114.25;92.50;60.00
55304;PMS7003;65692;51.378;19.824;2023-03-01T07:18:02;125.50;95.00;59.50
55304;PMS7003;65692;51.378;19.824;2023-03-01T07:20:32;120.50;97.25;59.50
55304;PMS7003;65692;51.378;19.824;2023-03-01T07:22:58;109.25;97.50;61.25
55304;PMS7003;65692;51.378;19.824;2023-03-01T07:25:27;108.50;85.50;51.75
55304;PMS7003;65692;51.378;19.824;2023-03-01T07:27:54;129.25;90.00;57.00
55304;PMS7003;65692;51.378;19.824;2023-03-01T07:30:21;107.25;84.25;51.75
55304;PMS7003;65692;51.378;19.824;2023-03-01T07:32:51;109.50;85.75;52.25
55304;PMS7003;65692;51.378;19.824;2023-03-01T07:35:21;98.25;71.25;42.25
55304;PMS7003;65692;51.378;19.824;2023-03-01T07:37:47;104.75;76.00;49.75
55304;PMS7003;65692;51.378;19.824;2023-03-01T07:40:14;107.50;77.75;48.00
55304;PMS7003;65692;51.378;19.824;2023-03-01T07:42:40;132.67;111.33;68.33
55304;PMS7003;65692;51.378;19.824;2023-03-01T07:45:09;109.50;86.50;55.00
55304;PMS7003;65692;51.378;19.824;2023-03-01T07:47:35;112.75;86.00;51.75
55304;PMS7003;65692;51.378;19.824;2023-03-01T07:50:02;111.75;83.50;52.00
55304;PMS7003;65692;51.378;19.824;2023-03-01T07:52:29;111.00;93.00;54.50
55304;PMS7003;65692;51.378;19.824;2023-03-01T07:54:57;111.00;88.75;56.00
55304;PMS7003;65692;51.378;19.824;2023-03-01T07:57:23;105.25;83.00;49.75
55304;PMS7003;65692;51.378;19.824;2023-03-01T07:59:50;107.75;83.50;49.25
55304;PMS7003;65692;51.378;19.824;2023-03-01T08:02:16;103.50;81.50;50.25
55304;PMS7003;65692;51.378;19.824;2023-03-01T08:04:42;102.50;76.50;48.00
55304;PMS7003;65692;51.378;19.824;2023-03-01T08:07:09;97.25;72.75;46.25
55304;PMS7003;65692;51.378;19.824;2023-03-01T08:09:35;100.75;74.25;47.50
55304;PMS7003;65692;51.378;19.824;2023-03-01T08:12:04;98.75;74.75;47.00
55304;PMS7003;65692;51.378;19.824;2023-03-01T08:14:33;100.25;80.75;50.75
55304;PMS7003;65692;51.378;19.824;2023-03-01T08:17:00;93.25;69.00;43.50
55304;PMS7003;65692;51.378;19.824;2023-03-01T08:19:29;92.25;68.75;42.50
55304;PMS7003;65692;51.378;19.824;2023-03-01T08:21:56;87.25;64.50;41.00
55304;PMS7003;65692;51.378;19.824;2023-03-01T08:24:25;84.75;63.75;41.00
55304;PMS7003;65692;51.378;19.824;2023-03-01T08:26:52;94.00;69.00;42.25
55304;PMS7003;65692;51.378;19.824;2023-03-01T08:29:18;85.00;63.25;40.50
55304;PMS7003;65692;51.378;19.824;2023-03-01T08:31:45;122.00;101.00;66.50
55304;PMS7003;65692;51.378;19.824;2023-03-01T08:34:12;122.75;98.00;57.50
55304;PMS7003;65692;51.378;19.824;2023-03-01T08:36:40;74.75;57.00;36.00
55304;PMS7003;65692;51.378;19.824;2023-03-01T08:39:07;96.50;74.75;47.50
55304;PMS7003;65692;51.378;19.824;2023-03-01T08:41:34;61.50;44.75;37.00
55304;PMS7003;65692;51.378;19.824;2023-03-01T08:44:00;86.50;66.00;43.25
55304;PMS7003;65692;51.378;19.824;2023-03-01T08:46:33;74.00;56.50;38.75
55304;PMS7003;65692;51.378;19.824;2023-03-01T08:49:03;73.75;45.75;17.00
55304;PMS7003;65692;51.378;19.824;2023-03-01T08:51:29;85.75;64.25;40.50
55304;PMS7003;65692;51.378;19.824;2023-03-01T08:53:58;83.25;61.25;40.75
55304;PMS7003;65692;51.378;19.824;2023-03-01T08:56:24;76.25;56.25;35.50
55304;PMS7003;65692;51.378;19.824;2023-03-01T08:58:56;71.50;55.50;36.00
55304;PMS7003;65692;51.378;19.824;2023-03-01T09:01:25;66.25;51.50;34.50
55304;PMS7003;65692;51.378;19.824;2023-03-01T09:03:52;62.00;49.00;32.50
55304;PMS7003;65692;51.378;19.824;2023-03-01T09:06:20;57.00;43.25;28.25
55304;PMS7003;65692;51.378;19.824;2023-03-01T09:08:48;59.00;44.25;28.75
55304;PMS7003;65692;51.378;19.824;2023-03-01T09:11:16;56.75;45.75;30.50
55304;PMS7003;65692;51.378;19.824;2023-03-01T09:13:43;60.25;46.00;30.00
55304;PMS7003;65692;51.378;19.824;2023-03-01T09:16:11;59.00;46.25;29.50
55304;PMS7003;65692;51.378;19.824;2023-03-01T09:18:37;39.75;37.25;27.00
55304;PMS7003;65692;51.378;19.824;2023-03-01T09:21:04;56.50;43.00;27.25
55304;PMS7003;65692;51.378;19.824;2023-03-01T09:23:34;54.75;43.00;29.50
55304;PMS7003;65692;51.378;19.824;2023-03-01T09:26:00;58.25;45.00;28.75
55304;PMS7003;65692;51.378;19.824;2023-03-01T09:28:27;55.25;40.25;27.00
55304;PMS7003;65692;51.378;19.824;2023-03-01T09:30:59;49.00;39.00;27.00
55304;PMS7003;65692;51.378;19.824;2023-03-01T09:33:26;47.50;39.25;27.00
55304;PMS7003;65692;51.378;19.824;2023-03-01T09:35:58;42.75;36.25;27.00
55304;PMS7003;65692;51.378;19.824;2023-03-01T09:38:25;55.75;40.75;27.25
55304;PMS7003;65692;51.378;19.824;2023-03-01T09:40:52;58.75;42.00;29.50
55304;PMS7003;65692;51.378;19.824;2023-03-01T09:43:53;54.00;41.50;28.50
55304;PMS7003;65692;51.378;19.824;2023-03-01T09:46:12;56.00;43.75;29.00
55304;PMS7003;65692;51.378;19.824;2023-03-01T09:48:45;57.00;43.25;29.00
55304;PMS7003;65692;51.378;19.824;2023-03-01T09:51:18;59.75;45.75;28.00
55304;PMS7003;65692;51.378;19.824;2023-03-01T09:53:46;58.25;44.50;29.00
55304;PMS7003;65692;51.378;19.824;2023-03-01T09:56:20;55.75;46.00;30.75
55304;PMS7003;65692;51.378;19.824;2023-03-01T09:58:51;45.75;38.00;26.00
55304;PMS7003;65692;51.378;19.824;2023-03-01T10:04:22;34.67;23.33;14.67
55304;PMS7003;65692;51.378;19.824;2023-03-01T10:06:43;32.75;28.75;15.00
55304;PMS7003;65692;51.378;19.824;2023-03-01T10:09:11;44.50;35.50;24.75
55304;PMS7003;65692;51.378;19.824;2023-03-01T10:11:44;43.00;36.00;24.33
55304;PMS7003;65692;51.378;19.824;2023-03-01T10:14:27;51.00;40.00;27.00
55304;PMS7003;65692;51.378;19.824;2023-03-01T10:16:57;44.50;37.50;27.00
55304;PMS7003;65692;51.378;19.824;2023-03-01T10:19:30;48.50;38.25;26.25
55304;PMS7003;65692;51.378;19.824;2023-03-01T10:22:31;48.00;38.00;26.00
55304;PMS7003;65692;51.378;19.824;2023-03-01T10:24:51;35.67;29.67;23.00
55304;PMS7003;65692;51.378;19.824;2023-03-01T10:29:50;44.00;37.33;27.00
55304;PMS7003;65692;51.378;19.824;2023-03-01T10:32:21;36.67;29.00;22.33
55304;PMS7003;65692;51.378;19.824;2023-03-01T10:34:50;43.00;35.00;23.67
55304;PMS7003;65692;51.378;19.824;2023-03-01T10:37:17;46.00;35.67;23.67
55304;PMS7003;65692;51.378;19.824;2023-03-01T10:42:35;51.00;40.00;26.25
55304;PMS7003;65692;51.378;19.824;2023-03-01T10:47:42;33.67;33.00;23.33
55304;PMS7003;65692;51.378;19.824;2023-03-01T10:50:18;43.33;35.33;24.00
55304;PMS7003;65692;51.378;19.824;2023-03-01T10:52:55;35.33;30.67;21.67
55304;PMS7003;65692;51.378;19.824;2023-03-01T10:55:24;43.33;34.67;24.00
55304;PMS7003;65692;51.378;19.824;2023-03-01T10:58:36;48.00;39.25;25.25
55304;PMS7003;65692;51.378;19.824;2023-03-01T11:03:17;49.33;36.33;23.00
55304;PMS7003;65692;51.378;19.824;2023-03-01T11:08:38;43.00;36.67;23.00
55304;PMS7003;65692;51.378;19.824;2023-03-01T11:11:08;41.25;35.50;24.75
55304;PMS7003;65692;51.378;19.824;2023-03-01T11:13:52;41.50;35.00;23.25
55304;PMS7003;65692;51.378;19.824;2023-03-01T11:16:23;55.50;42.25;27.00
55304;PMS7003;65692;51.378;19.824;2023-03-01T11:18:56;48.50;39.00;25.25
55304;PMS7003;65692;51.378;19.824;2023-03-01T11:21:24;50.50;38.50;25.25
55304;PMS7003;65692;51.378;19.824;2023-03-01T11:23:53;38.00;35.00;23.25
55304;PMS7003;65692;51.378;19.824;2023-03-01T11:26:22;52.75;38.00;25.50
55304;PMS7003;65692;51.378;19.824;2023-03-01T11:28:50;44.75;38.25;26.50
55304;PMS7003;65692;51.378;19.824;2023-03-01T11:31:19;50.75;41.25;27.00
55304;PMS7003;65692;51.378;19.824;2023-03-01T11:36:44;53.25;43.75;28.00
55304;PMS7003;65692;51.378;19.824;2023-03-01T11:42:15;49.50;38.75;26.75
55304;PMS7003;65692;51.378;19.824;2023-03-01T11:44:45;44.33;36.00;25.33
55304;PMS7003;65692;51.378;19.824;2023-03-01T11:50:01;53.00;40.00;26.25
55304;PMS7003;65692;51.378;19.824;2023-03-01T12:03:14;56.25;43.50;29.75
55304;PMS7003;65692;51.378;19.824;2023-03-01T12:08:45;45.25;39.00;27.00
55304;PMS7003;65692;51.378;19.824;2023-03-01T12:19:53;46.50;39.25;26.75
55304;PMS7003;65692;51.378;19.824;2023-03-01T12:25:27;50.25;39.25;24.50
55304;PMS7003;65692;51.378;19.824;2023-03-01T12:46:37;45.33;38.67;26.33
55304;PMS7003;65692;51.378;19.824;2023-03-01T12:49:09;54.50;41.50;27.50
55304;PMS7003;65692;51.378;19.824;2023-03-01T12:51:38;43.00;36.67;23.67
55304;PMS7003;65692;51.378;19.824;2023-03-01T12:54:26;49.00;40.25;25.75
55304;PMS7003;65692;51.378;19.824;2023-03-01T12:56:56;47.33;40.00;26.00
55304;PMS7003;65692;51.378;19.824;2023-03-01T13:20:59;50.67;38.00;25.67
55304;PMS7003;65692;51.378;19.824;2023-03-01T13:23:54;43.00;36.67;24.67
55304;PMS7003;65692;51.378;19.824;2023-03-01T13:32:36;37.67;35.33;24.67
55304;PMS7003;65692;51.378;19.824;2023-03-01T13:35:42;46.00;37.67;26.00
55304;PMS7003;65692;51.378;19.824;2023-03-01T13:38:48;47.00;38.00;26.00
55304;PMS7003;65692;51.378;19.824;2023-03-01T13:45:42;38.67;33.67;25.67
55304;PMS7003;65692;51.378;19.824;2023-03-01T13:48:30;44.00;36.67;26.67
55304;PMS7003;65692;51.378;19.824;2023-03-01T13:51:25;50.00;38.00;23.00
55304;PMS7003;65692;51.378;19.824;2023-03-01T13:54:15;17.67;13.67;0.00
55304;PMS7003;65692;51.378;19.824;2023-03-01T13:56:48;48.50;40.25;26.25
55304;PMS7003;65692;51.378;19.824;2023-03-01T14:03:33;47.00;38.33;25.67
55304;PMS7003;65692;51.378;19.824;2023-03-01T14:06:41;43.33;38.00;26.00
55304;PMS7003;65692;51.378;19.824;2023-03-01T14:15:50;40.00;35.33;24.33
55304;PMS7003;65692;51.378;19.824;2023-03-01T14:21:25;46.33;37.33;25.67
55304;PMS7003;65692;51.378;19.824;2023-03-01T14:24:20;47.33;38.00;25.67
55304;PMS7003;65692;51.378;19.824;2023-03-01T14:30:09;65.25;48.25;32.25
55304;PMS7003;65692;51.378;19.824;2023-03-01T14:33:35;54.75;44.25;29.25
55304;PMS7003;65692;51.378;19.824;2023-03-01T14:36:25;49.33;37.00;22.00
55304;PMS7003;65692;51.378;19.824;2023-03-01T14:39:15;45.33;37.67;25.00
55304;PMS7003;65692;51.378;19.824;2023-03-01T14:42:00;34.50;30.75;18.25
55304;PMS7003;65692;51.378;19.824;2023-03-01T14:45:09;49.00;38.00;25.00
55304;PMS7003;65692;51.378;19.824;2023-03-01T14:48:08;39.33;33.67;23.33
55304;PMS7003;65692;51.378;19.824;2023-03-01T14:51:14;38.00;32.33;23.33
55304;PMS7003;65692;51.378;19.824;2023-03-01T14:54:10;43.67;36.00;26.33
55304;PMS7003;65692;51.378;19.824;2023-03-01T14:57:19;36.00;23.33;19.33
55304;PMS7003;65692;51.378;19.824;2023-03-01T15:03:19;36.33;30.67;24.00
55304;PMS7003;65692;51.378;19.824;2023-03-01T15:05:53;61.75;46.75;32.50
55304;PMS7003;65692;51.378;19.824;2023-03-01T15:08:21;50.75;41.75;27.00
55304;PMS7003;65692;51.378;19.824;2023-03-01T15:10:59;42.75;37.50;24.00
55304;PMS7003;65692;51.378;19.824;2023-03-01T15:13:29;48.00;40.25;25.50
55304;PMS7003;65692;51.378;19.824;2023-03-01T15:18:32;19.33;8.00;0.00
55304;PMS7003;65692;51.378;19.824;2023-03-01T15:21:14;44.00;35.50;26.00
55304;PMS7003;65692;51.378;19.824;2023-03-01T15:23:47;51.00;39.75;27.75
55304;PMS7003;65692;51.378;19.824;2023-03-01T15:26:29;49.75;37.50;23.50
55304;PMS7003;65692;51.378;19.824;2023-03-01T15:28:58;40.00;34.00;24.00
55304;PMS7003;65692;51.378;19.824;2023-03-01T15:31:27;50.50;43.00;29.00
55304;PMS7003;65692;51.378;19.824;2023-03-01T15:34:11;55.75;41.00;28.00
55304;PMS7003;65692;51.378;19.824;2023-03-01T15:36:47;48.25;40.00;28.00
55304;PMS7003;65692;51.378;19.824;2023-03-01T15:47:46;55.25;40.50;26.50
55304;PMS7003;65692;51.378;19.824;2023-03-01T15:50:19;48.00;36.25;24.00
55304;PMS7003;65692;51.378;19.824;2023-03-01T15:52:47;55.25;42.00;28.00
55304;PMS7003;65692;51.378;19.824;2023-03-01T15:55:37;54.25;43.25;29.00
55304;PMS7003;65692;51.378;19.824;2023-03-01T15:58:13;46.75;40.00;27.50
55304;PMS7003;65692;51.378;19.824;2023-03-01T16:00:52;53.00;39.25;25.50
55304;PMS7003;65692;51.378;19.824;2023-03-01T16:03:27;39.25;33.75;24.50
55304;PMS7003;65692;51.378;19.824;2023-03-01T16:05:54;33.33;32.00;22.00
55304;PMS7003;65692;51.378;19.824;2023-03-01T16:08:24;50.50;39.75;28.75